createdAt,value
2022-09-14T00:00:32.843Z,22.82
2022-09-14T00:03:28.976Z,22.83
2022-09-14T00:06:06.750Z,22.84
2022-09-14T00:08:39.048Z,22.83
2022-09-14T00:11:13.923Z,22.84
2022-09-14T00:13:48.694Z,22.84
2022-09-14T00:16:23.827Z,22.85
2022-09-14T00:18:59.571Z,22.84
2022-09-14T00:21:37.861Z,22.84
2022-09-14T00:24:11.183Z,22.86
2022-09-14T00:26:43.678Z,22.86
2022-09-14T00:29:17.161Z,22.87
2022-09-14T00:31:51.142Z,22.89
2022-09-14T00:34:24.878Z,22.90
2022-09-14T00:36:57.734Z,22.92
2022-09-14T00:39:29.710Z,22.91
2022-09-14T00:42:03.857Z,22.87
2022-09-14T00:45:18.202Z,22.88
2022-09-14T00:47:58.251Z,22.79
2022-09-14T00:50:31.761Z,22.78
2022-09-14T00:53:05.561Z,22.77
2022-09-14T00:55:38.021Z,22.79
2022-09-14T00:58:10.761Z,22.82
2022-09-14T01:00:45.257Z,22.81
2022-09-14T01:03:20.834Z,22.78
2022-09-14T01:06:06.404Z,22.77
2022-09-14T01:09:05.327Z,22.78
2022-09-14T01:11:51.801Z,22.76
2022-09-14T01:14:31.326Z,22.69
2022-09-14T01:17:11.885Z,22.64
2022-09-14T01:20:22.312Z,22.61
2022-09-14T01:23:06.511Z,22.55
2022-09-14T01:25:51.332Z,22.53
2022-09-14T01:28:30.692Z,22.50
2022-09-14T01:31:04.986Z,22.54
2022-09-14T01:33:41.525Z,22.53
2022-09-14T01:36:16.422Z,22.51
2022-09-14T01:38:50.439Z,22.46
2022-09-14T01:41:30.693Z,22.42
2022-09-14T01:44:04.710Z,22.47
2022-09-14T01:46:43.066Z,22.45
2022-09-14T01:49:20.044Z,22.48
2022-09-14T01:51:56.334Z,22.47
2022-09-14T01:54:34.755Z,22.45
2022-09-14T01:57:19.013Z,22.48
2022-09-14T01:59:56.191Z,22.48
2022-09-14T02:02:32.611Z,22.50
2022-09-14T02:05:11.983Z,22.47
2022-09-14T02:07:46.936Z,22.42
2022-09-14T02:10:20.238Z,22.38
2022-09-14T02:12:53.760Z,22.31
2022-09-14T02:15:31.293Z,22.24
2022-09-14T02:18:03.919Z,22.24
2022-09-14T02:20:40.087Z,22.20
2022-09-14T02:23:16.395Z,22.15
2022-09-14T02:25:50.484Z,22.15
2022-09-14T02:28:25.101Z,22.11
2022-09-14T02:31:11.513Z,22.06
2022-09-14T02:34:06.158Z,21.96
2022-09-14T02:36:50.214Z,21.91
2022-09-14T02:39:33.338Z,21.87
2022-09-14T02:42:16.845Z,21.84
2022-09-14T02:44:57.168Z,21.80
2022-09-14T02:47:36.033Z,21.79
2022-09-14T02:50:14.100Z,21.81
2022-09-14T02:52:52.894Z,21.76
2022-09-14T02:55:26.970Z,21.75
2022-09-14T02:58:08.667Z,21.72
2022-09-14T03:00:47.230Z,21.71
2022-09-14T03:03:22.980Z,21.68
2022-09-14T03:05:57.069Z,21.61
2022-09-14T03:08:30.347Z,21.54
2022-09-14T03:11:10.118Z,21.57
2022-09-14T03:13:43.308Z,21.56
2022-09-14T03:16:17.489Z,21.56
2022-09-14T03:18:51.561Z,21.54
2022-09-14T03:21:24.346Z,21.71
2022-09-14T03:23:57.986Z,21.73
2022-09-14T03:26:32.029Z,21.50
2022-09-14T03:29:04.818Z,21.50
2022-09-14T03:31:37.642Z,21.52
2022-09-14T03:34:11.972Z,21.53
2022-09-14T03:36:43.931Z,21.47
2022-09-14T03:39:16.660Z,21.46
2022-09-14T03:41:50.507Z,21.45
2022-09-14T03:44:22.903Z,21.50
2022-09-14T03:46:55.209Z,21.53
2022-09-14T03:49:29.188Z,21.52
2022-09-14T03:52:03.938Z,21.51
2022-09-14T03:54:39.177Z,21.48
2022-09-14T03:57:11.810Z,21.48
2022-09-14T03:59:45.478Z,21.39
2022-09-14T04:02:17.901Z,21.36
2022-09-14T04:04:50.073Z,21.31
2022-09-14T04:07:22.184Z,21.28
2022-09-14T04:09:54.120Z,21.26
2022-09-14T04:12:26.667Z,21.24
2022-09-14T04:14:58.718Z,21.24
2022-09-14T04:17:30.947Z,21.22
2022-09-14T04:20:03.107Z,21.18
2022-09-14T04:22:36.708Z,21.16
2022-09-14T04:25:09.985Z,21.15
2022-09-14T04:27:41.893Z,21.18
2022-09-14T04:30:15.702Z,21.15
2022-09-14T04:32:48.051Z,21.18
2022-09-14T04:35:20.576Z,21.14
2022-09-14T04:37:52.741Z,21.13
2022-09-14T04:40:25.040Z,21.11
2022-09-14T04:42:56.960Z,21.08
2022-09-14T04:45:29.130Z,21.10
2022-09-14T04:48:01.043Z,21.12
2022-09-14T04:50:34.702Z,21.15
2022-09-14T04:53:06.836Z,21.14
2022-09-14T04:55:39.258Z,21.16
2022-09-14T04:58:11.329Z,21.16
2022-09-14T05:00:43.442Z,21.17
2022-09-14T05:03:15.771Z,21.21
2022-09-14T05:05:48.444Z,21.28
2022-09-14T05:08:20.737Z,21.31
2022-09-14T05:10:55.670Z,21.31
2022-09-14T05:13:28.242Z,21.45
2022-09-14T05:16:07.728Z,21.38
2022-09-14T05:18:40.018Z,21.44
2022-09-14T05:21:13.708Z,21.47
2022-09-14T05:23:46.398Z,21.50
2022-09-14T05:26:18.314Z,21.54
2022-09-14T05:28:55.213Z,21.60
2022-09-14T05:31:29.320Z,21.70
2022-09-14T05:34:03.193Z,21.80
2022-09-14T05:36:36.846Z,21.94
2022-09-14T05:39:09.930Z,22.09
2022-09-14T05:41:41.866Z,22.20
2022-09-14T05:44:15.075Z,22.40
2022-09-14T05:46:47.234Z,22.51
2022-09-14T05:49:19.300Z,22.65
2022-09-14T05:51:51.755Z,22.77
2022-09-14T05:54:23.959Z,22.93
2022-09-14T05:56:56.020Z,23.00
2022-09-14T05:59:31.826Z,23.11
2022-09-14T06:02:04.153Z,23.21
2022-09-14T06:04:36.492Z,23.30
2022-09-14T06:07:18.435Z,23.36
2022-09-14T06:09:51.294Z,23.54
2022-09-14T06:12:23.467Z,23.67
2022-09-14T06:14:55.366Z,23.79
2022-09-14T06:17:27.598Z,23.86
2022-09-14T06:20:04.038Z,23.94
2022-09-14T06:22:37.040Z,23.98
2022-09-14T06:25:11.533Z,24.02
2022-09-14T06:27:43.535Z,24.12
2022-09-14T06:30:17.012Z,24.23
2022-09-14T06:32:49.172Z,24.29
2022-09-14T06:35:21.176Z,24.42
2022-09-14T06:37:53.255Z,24.56
2022-09-14T06:40:27.154Z,24.61
2022-09-14T06:43:03.051Z,24.65
2022-09-14T06:45:36.854Z,24.68
2022-09-14T06:48:08.971Z,24.74
2022-09-14T06:50:41.292Z,24.85
2022-09-14T06:53:13.438Z,24.94
2022-09-14T06:55:46.414Z,25.13
2022-09-14T06:58:21.712Z,25.17
2022-09-14T07:00:54.595Z,25.17
2022-09-14T07:03:28.097Z,25.18
2022-09-14T07:06:09.006Z,25.26
2022-09-14T07:08:42.949Z,25.06
2022-09-14T07:11:17.853Z,25.03
2022-09-14T07:13:50.710Z,25.09
2022-09-14T07:16:26.596Z,25.16
2022-09-14T07:19:05.988Z,25.27
2022-09-14T07:21:38.215Z,25.40
2022-09-14T07:24:14.877Z,25.49
2022-09-14T07:26:47.188Z,25.56
2022-09-14T07:29:23.158Z,25.62
2022-09-14T07:31:57.126Z,25.70
2022-09-14T07:34:31.300Z,25.80
2022-09-14T07:37:04.492Z,25.94
2022-09-14T07:39:36.775Z,25.99
2022-09-14T07:42:09.421Z,26.03
2022-09-14T07:44:42.068Z,26.01
2022-09-14T07:47:16.471Z,25.95
2022-09-14T07:49:49.200Z,25.89
2022-09-14T07:52:21.808Z,25.90
2022-09-14T07:54:56.285Z,25.93
2022-09-14T07:57:52.314Z,26.01
2022-09-14T08:00:22.043Z,26.07
2022-09-14T08:02:58.816Z,26.16
2022-09-14T08:05:31.701Z,26.30
2022-09-14T08:08:05.676Z,26.44
2022-09-14T08:10:39.720Z,26.46
2022-09-14T08:13:13.937Z,26.54
2022-09-14T08:15:46.453Z,26.66
2022-09-14T08:18:20.834Z,26.83
2022-09-14T08:20:54.793Z,26.90
2022-09-14T08:23:29.777Z,26.93
2022-09-14T08:26:07.498Z,27.06
2022-09-14T08:28:40.224Z,27.22
2022-09-14T08:31:15.862Z,27.16
2022-09-14T08:33:51.557Z,27.20
2022-09-14T08:36:24.942Z,27.34
2022-09-14T08:38:57.020Z,27.44
2022-09-14T08:41:32.329Z,27.50
2022-09-14T08:44:13.872Z,27.66
2022-09-14T08:46:51.692Z,27.89
2022-09-14T08:49:32.402Z,27.95
2022-09-14T08:52:06.825Z,28.04
2022-09-14T08:54:42.695Z,28.13
2022-09-14T08:57:19.950Z,28.18
2022-09-14T09:00:01.079Z,28.19
2022-09-14T09:02:52.150Z,28.24
2022-09-14T09:05:39.540Z,28.33
2022-09-14T09:08:19.008Z,28.35
2022-09-14T09:10:56.059Z,28.33
2022-09-14T09:13:30.624Z,28.41
2022-09-14T09:16:04.391Z,28.47
2022-09-14T09:18:42.856Z,28.42
2022-09-14T09:21:20.045Z,28.59
2022-09-14T09:23:54.782Z,28.77
2022-09-14T09:26:31.686Z,28.78
2022-09-14T09:29:08.884Z,28.77
2022-09-14T09:31:44.549Z,28.79
2022-09-14T09:34:18.434Z,28.83
2022-09-14T09:36:51.480Z,28.93
2022-09-14T09:39:26.032Z,28.97
2022-09-14T09:42:05.281Z,28.99
2022-09-14T09:45:01.810Z,29.00
2022-09-14T09:47:41.036Z,29.01
2022-09-14T09:50:22.412Z,29.10
2022-09-14T09:52:58.196Z,29.31
2022-09-14T09:55:37.704Z,29.43
2022-09-14T10:01:22.212Z,29.35
2022-09-14T10:04:11.316Z,29.33
2022-09-14T10:06:48.396Z,29.47
2022-09-14T10:09:24.522Z,29.44
2022-09-14T10:12:04.317Z,29.48
2022-09-14T10:14:40.751Z,29.51
2022-09-14T10:17:20.067Z,29.38
2022-09-14T10:19:53.056Z,29.18
2022-09-14T10:22:32.872Z,29.00
2022-09-14T10:25:27.914Z,28.83
2022-09-14T10:28:04.886Z,28.59
2022-09-14T10:30:40.896Z,28.35
2022-09-14T10:33:16.281Z,28.20
2022-09-14T10:35:58.588Z,28.09
2022-09-14T10:38:36.472Z,27.97
2022-09-14T10:41:21.258Z,27.91
2022-09-14T10:44:23.530Z,27.96
2022-09-14T10:47:10.373Z,27.97
2022-09-14T10:49:56.729Z,27.91
2022-09-14T10:52:38.412Z,27.83
2022-09-14T10:55:37.101Z,27.67
2022-09-14T10:58:24.789Z,27.46
2022-09-14T11:01:05.389Z,27.41
2022-09-14T11:03:47.386Z,27.40
2022-09-14T11:06:30.690Z,27.38
2022-09-14T11:09:10.839Z,27.34
2022-09-14T11:11:50.597Z,27.32
2022-09-14T11:14:39.578Z,27.32
2022-09-14T11:17:56.523Z,27.44
2022-09-14T11:20:34.713Z,27.30
2022-09-14T11:23:18.854Z,27.02
2022-09-14T11:25:56.162Z,26.97
2022-09-14T11:28:30.794Z,27.01
2022-09-14T11:31:13.715Z,26.99
2022-09-14T11:33:53.548Z,26.89
2022-09-14T11:36:30.690Z,26.79
2022-09-14T11:39:16.407Z,26.66
2022-09-14T11:41:53.700Z,26.67
2022-09-14T11:44:28.424Z,26.50
2022-09-14T11:47:05.304Z,26.33
2022-09-14T11:49:52.615Z,26.25
2022-09-14T11:52:27.245Z,26.12
2022-09-14T11:55:02.942Z,26.16
2022-09-14T11:57:36.171Z,26.07
2022-09-14T12:00:43.294Z,25.96
2022-09-14T12:03:20.414Z,25.82
2022-09-14T12:05:54.692Z,25.73
2022-09-14T12:08:41.823Z,25.68
2022-09-14T12:11:34.783Z,25.53
2022-09-14T12:14:30.483Z,25.26
2022-09-14T12:17:38.754Z,24.99
2022-09-14T12:20:38.445Z,24.89
2022-09-14T12:23:25.831Z,24.80
2022-09-14T12:26:01.995Z,24.66
2022-09-14T12:28:48.517Z,24.53
2022-09-14T12:31:40.676Z,24.39
2022-09-14T12:34:21.523Z,24.35
2022-09-14T12:37:27.004Z,24.31
2022-09-14T12:40:33.840Z,23.99
2022-09-14T12:43:46.982Z,23.94
2022-09-14T12:46:51.015Z,23.94
2022-09-14T12:49:46.875Z,23.93
2022-09-14T12:52:35.044Z,23.97
2022-09-14T12:55:31.125Z,23.94
2022-09-14T12:58:09.055Z,24.01
2022-09-14T13:00:56.564Z,24.29
2022-09-14T13:03:52.719Z,24.39
2022-09-14T13:06:26.604Z,24.42
2022-09-14T13:09:06.314Z,24.27
2022-09-14T13:11:44.082Z,24.18
2022-09-14T13:14:39.814Z,24.23
2022-09-14T13:17:15.920Z,24.26
2022-09-14T13:19:57.286Z,24.16
2022-09-14T13:22:33.582Z,23.88
2022-09-14T13:25:06.894Z,23.82
2022-09-14T13:27:40.615Z,23.82
2022-09-14T13:30:23.968Z,23.83
2022-09-14T13:32:59.935Z,23.88
2022-09-14T13:35:36.295Z,23.92
2022-09-14T13:38:17.947Z,23.97
2022-09-14T13:40:55.798Z,24.03
2022-09-14T13:43:29.024Z,24.07
2022-09-14T13:46:03.119Z,24.20
2022-09-14T13:48:40.389Z,24.30
2022-09-14T13:51:15.264Z,24.32
2022-09-14T13:53:50.691Z,24.36
2022-09-14T13:56:26.706Z,24.39
2022-09-14T13:59:25.297Z,24.51
2022-09-14T14:02:00.999Z,24.42
2022-09-14T14:04:36.384Z,24.57
2022-09-14T14:07:22.361Z,24.51
2022-09-14T14:09:57.084Z,24.67
2022-09-14T14:12:32.139Z,24.96
2022-09-14T14:15:06.899Z,25.10
2022-09-14T14:17:41.240Z,25.22
2022-09-14T14:20:45.391Z,25.31
2022-09-14T14:23:22.708Z,25.28
2022-09-14T14:25:56.279Z,25.26
2022-09-14T14:28:30.631Z,25.27
2022-09-14T14:31:08.541Z,25.42
2022-09-14T14:33:48.359Z,25.45
2022-09-14T14:36:23.387Z,25.55
2022-09-14T14:38:59.781Z,25.47
2022-09-14T14:41:33.135Z,25.41
2022-09-14T14:44:07.317Z,25.36
2022-09-14T14:46:40.745Z,25.23
2022-09-14T14:49:17.167Z,25.16
2022-09-14T14:51:51.668Z,25.03
2022-09-14T14:54:29.067Z,24.92
2022-09-14T14:57:04.213Z,24.74
2022-09-14T14:59:41.544Z,24.61
2022-09-14T15:02:15.402Z,24.54
2022-09-14T15:04:50.658Z,24.27
2022-09-14T15:07:23.349Z,24.17
2022-09-14T15:10:03.173Z,24.12
2022-09-14T15:12:37.155Z,24.07
2022-09-14T15:15:18.714Z,24.03
2022-09-14T15:17:52.014Z,24.02
2022-09-14T15:20:25.243Z,24.02
2022-09-14T15:23:00.365Z,24.02
2022-09-14T15:25:32.821Z,23.84
2022-09-14T15:28:06.978Z,24.00
2022-09-14T15:30:40.920Z,23.85
2022-09-14T15:33:15.414Z,23.79
2022-09-14T15:35:47.685Z,23.93
2022-09-14T15:38:20.050Z,23.82
2022-09-14T15:40:53.420Z,23.78
2022-09-14T15:43:25.554Z,23.76
2022-09-14T15:46:04.286Z,23.79
2022-09-14T15:48:38.368Z,23.63
2022-09-14T15:51:12.963Z,23.55
2022-09-14T15:53:47.373Z,23.75
2022-09-14T15:56:21.446Z,23.75
2022-09-14T15:58:53.602Z,23.77
2022-09-14T16:01:25.961Z,23.84
2022-09-14T16:04:05.753Z,23.73
2022-09-14T16:06:42.455Z,23.78
2022-09-14T16:09:17.610Z,23.77
2022-09-14T16:11:49.855Z,23.74
2022-09-14T16:14:28.171Z,23.71
2022-09-14T16:17:03.142Z,23.68
2022-09-14T16:19:35.903Z,23.69
2022-09-14T16:22:10.547Z,23.72
2022-09-14T16:24:46.520Z,23.69
2022-09-14T16:27:21.931Z,23.67
2022-09-14T16:29:56.111Z,23.66
2022-09-14T16:32:30.448Z,23.65
2022-09-14T16:35:08.107Z,23.57
2022-09-14T16:37:41.785Z,23.53
2022-09-14T16:40:16.430Z,23.55
2022-09-14T16:42:49.836Z,23.55
2022-09-14T16:45:23.190Z,23.35
2022-09-14T16:47:56.473Z,23.28
2022-09-14T16:50:30.084Z,23.26
2022-09-14T16:53:03.597Z,23.21
2022-09-14T16:55:38.132Z,23.22
2022-09-14T16:58:11.049Z,23.24
2022-09-14T17:00:44.430Z,23.23
2022-09-14T17:03:18.607Z,23.21
2022-09-14T17:05:52.072Z,23.17
2022-09-14T17:08:25.512Z,23.11
2022-09-14T17:10:59.023Z,23.03
2022-09-14T17:13:34.063Z,22.99
2022-09-14T17:16:14.000Z,22.95
2022-09-14T17:18:49.782Z,22.85
2022-09-14T17:21:24.149Z,22.77
2022-09-14T17:23:57.197Z,22.71
2022-09-14T17:26:30.738Z,22.67
2022-09-14T17:29:04.403Z,22.63
2022-09-14T17:31:39.644Z,22.63
2022-09-14T17:34:16.199Z,22.61
2022-09-14T17:36:50.467Z,22.59
2022-09-14T17:39:24.485Z,22.61
2022-09-14T17:41:57.589Z,22.61
2022-09-14T17:44:32.897Z,22.57
2022-09-14T17:47:07.798Z,22.58
2022-09-14T17:49:42.381Z,22.58
2022-09-14T17:52:18.274Z,22.61
2022-09-14T17:54:51.469Z,22.65
2022-09-14T17:57:24.132Z,22.63
2022-09-14T17:59:57.862Z,22.62
2022-09-14T18:02:34.268Z,22.61
2022-09-14T18:05:09.557Z,22.62
2022-09-14T18:07:42.837Z,22.59
2022-09-14T18:10:18.023Z,22.58
2022-09-14T18:12:53.289Z,22.58
2022-09-14T18:15:26.763Z,22.57
2022-09-14T18:18:00.080Z,22.57
2022-09-14T18:20:36.560Z,22.58
2022-09-14T18:23:10.127Z,22.58
2022-09-14T18:25:45.812Z,22.57
2022-09-14T18:28:18.498Z,22.52
2022-09-14T18:30:51.673Z,22.59
2022-09-14T18:33:26.232Z,22.76
2022-09-14T18:35:58.965Z,22.66
2022-09-14T18:38:33.509Z,22.55
2022-09-14T18:41:12.306Z,22.54
2022-09-14T18:43:48.265Z,22.60
2022-09-14T18:46:27.083Z,22.74
2022-09-14T18:49:03.775Z,22.75
2022-09-14T18:51:37.573Z,22.78
2022-09-14T18:54:12.543Z,22.78
2022-09-14T18:56:46.320Z,22.78
2022-09-14T18:59:20.185Z,22.78
2022-09-14T19:01:53.759Z,22.66
2022-09-14T19:04:27.060Z,22.50
2022-09-14T19:07:01.386Z,22.47
2022-09-14T19:09:36.173Z,22.67
2022-09-14T19:12:10.705Z,22.73
2022-09-14T19:14:46.516Z,22.76
2022-09-14T19:17:20.645Z,22.77
2022-09-14T19:19:54.050Z,22.80
2022-09-14T19:22:29.312Z,22.77
2022-09-14T19:25:02.289Z,22.77
2022-09-14T19:27:36.088Z,22.78
2022-09-14T19:30:13.062Z,22.80
2022-09-14T19:32:47.825Z,22.82
2022-09-14T19:35:20.812Z,22.80
2022-09-14T19:37:55.521Z,22.80
2022-09-14T19:40:28.835Z,22.76
2022-09-14T19:43:03.551Z,22.78
2022-09-14T19:45:39.002Z,22.78
2022-09-14T19:48:12.851Z,22.77
2022-09-14T19:50:46.260Z,22.79
2022-09-14T19:53:19.612Z,22.75
2022-09-14T19:55:54.124Z,22.67
2022-09-14T19:58:29.112Z,22.55
2022-09-14T20:01:03.238Z,22.51
2022-09-14T20:03:39.349Z,22.52
2022-09-14T20:06:19.357Z,22.72
2022-09-14T20:08:53.941Z,22.75
2022-09-14T20:11:27.491Z,22.75
2022-09-14T20:14:02.631Z,22.71
2022-09-14T20:16:42.087Z,22.50
2022-09-14T20:19:24.152Z,22.49
2022-09-14T20:21:57.699Z,22.46
2022-09-14T20:24:32.606Z,22.52
2022-09-14T20:27:05.081Z,22.76
2022-09-14T20:29:37.786Z,22.82
2022-09-14T20:32:12.299Z,22.79
2022-09-14T20:35:09.399Z,22.76
2022-09-14T20:37:48.488Z,22.77
2022-09-14T20:40:24.051Z,22.60
2022-09-14T20:43:28.665Z,22.62
2022-09-14T20:46:05.675Z,22.63
2022-09-14T20:49:06.802Z,22.63
2022-09-14T20:52:08.749Z,22.42
2022-09-14T20:58:10.621Z,22.42
2022-09-14T21:00:47.448Z,22.40
2022-09-14T21:03:23.167Z,22.46
2022-09-14T21:06:26.689Z,22.65
2022-09-14T21:09:34.754Z,22.68
2022-09-14T21:12:35.601Z,22.71
2022-09-14T21:15:15.290Z,22.74
2022-09-14T21:17:50.923Z,22.73
2022-09-14T21:20:30.675Z,22.72
2022-09-14T21:23:09.022Z,22.72
2022-09-14T21:25:46.082Z,22.70
2022-09-14T21:28:19.106Z,22.70
2022-09-14T21:30:51.956Z,22.71
2022-09-14T21:33:24.161Z,22.66
2022-09-14T21:35:56.654Z,22.66
2022-09-14T21:38:32.286Z,22.66
2022-09-14T21:41:08.719Z,22.59
2022-09-14T21:43:42.941Z,22.58
2022-09-14T21:46:15.285Z,22.59
2022-09-14T21:48:51.424Z,22.59
2022-09-14T21:51:26.617Z,22.55
2022-09-14T21:54:00.597Z,22.52
2022-09-14T21:56:35.118Z,22.54
2022-09-14T21:59:10.096Z,22.61
2022-09-14T22:01:44.252Z,22.50
2022-09-14T22:04:18.814Z,22.55
2022-09-14T22:06:53.862Z,22.59
2022-09-14T22:09:28.334Z,22.43
2022-09-14T22:12:03.333Z,22.49
2022-09-14T22:14:36.365Z,22.53
2022-09-14T22:17:09.693Z,22.54
2022-09-14T22:19:43.467Z,22.47
2022-09-14T22:22:16.005Z,22.41
2022-09-14T22:24:48.759Z,22.43
2022-09-14T22:27:21.366Z,22.53
2022-09-14T22:29:53.657Z,22.49
2022-09-14T22:32:31.575Z,22.39
2022-09-14T22:35:08.721Z,22.53
2022-09-14T22:37:40.563Z,22.52
2022-09-14T22:40:13.800Z,22.52
2022-09-14T22:42:48.556Z,22.73
2022-09-14T22:45:22.822Z,22.59
2022-09-14T22:47:58.290Z,22.51
2022-09-14T22:50:33.413Z,22.53
2022-09-14T22:53:05.198Z,22.64
2022-09-14T22:55:40.311Z,22.59
2022-09-14T22:58:14.192Z,22.66
2022-09-14T23:00:48.540Z,22.68
2022-09-14T23:03:23.221Z,22.66
2022-09-14T23:05:58.109Z,22.68
2022-09-14T23:08:37.047Z,22.64
2022-09-14T23:11:12.348Z,22.62
2022-09-14T23:13:45.035Z,22.42
2022-09-14T23:16:20.260Z,22.43
2022-09-14T23:19:00.867Z,22.44
2022-09-14T23:21:33.943Z,22.54
2022-09-14T23:24:08.770Z,22.64
2022-09-14T23:26:42.264Z,22.62
2022-09-14T23:29:18.098Z,22.53
2022-09-14T23:31:51.072Z,22.47
2022-09-14T23:34:26.751Z,22.44
2022-09-14T23:37:03.460Z,22.47
2022-09-14T23:39:35.795Z,22.60
2022-09-14T23:42:08.484Z,22.57
2022-09-14T23:44:41.885Z,22.62
2022-09-14T23:47:15.581Z,22.42
2022-09-14T23:49:48.069Z,22.41
2022-09-14T23:52:21.692Z,22.46
2022-09-14T23:54:56.791Z,22.51
2022-09-14T23:57:29.897Z,22.57
